sensor_id;sensor_type;location;lat;lon;timestamp;P1;durP1;ratioP1;P2;durP2;ratioP2
77248;SDS011;66280;45.124;20.718;2023-04-12T00:06:19;5.22;;;3.17;;
77248;SDS011;66280;45.124;20.718;2023-04-12T00:16:19;3.63;;;3.13;;
77248;SDS011;66280;45.124;20.718;2023-04-12T00:26:20;6.77;;;4.30;;
77248;SDS011;66280;45.124;20.718;2023-04-12T00:36:21;5.40;;;2.72;;
77248;SDS011;66280;45.124;20.718;2023-04-12T00:46:22;12.10;;;4.15;;
77248;SDS011;66280;45.124;20.718;2023-04-12T00:56:26;6.40;;;3.57;;
77248;SDS011;66280;45.124;20.718;2023-04-12T01:16:37;6.17;;;3.10;;
77248;SDS011;66280;45.124;20.718;2023-04-12T01:26:44;6.35;;;4.05;;
77248;SDS011;66280;45.124;20.718;2023-04-12T01:36:47;20.33;;;4.07;;
77248;SDS011;66280;45.124;20.718;2023-04-12T01:46:47;4.83;;;2.33;;
77248;SDS011;66280;45.124;20.718;2023-04-12T01:56:49;4.57;;;3.03;;
77248;SDS011;66280;45.124;20.718;2023-04-12T02:06:56;4.50;;;2.10;;
77248;SDS011;66280;45.124;20.718;2023-04-12T02:16:57;2.03;;;1.40;;
77248;SDS011;66280;45.124;20.718;2023-04-12T02:26:58;2.00;;;1.50;;
77248;SDS011;66280;45.124;20.718;2023-04-12T02:36:58;3.13;;;1.90;;
77248;SDS011;66280;45.124;20.718;2023-04-12T02:46:59;1.73;;;1.63;;
77248;SDS011;66280;45.124;20.718;2023-04-12T02:57:00;1.92;;;1.17;;
77248;SDS011;66280;45.124;20.718;2023-04-12T03:07:19;1.63;;;1.53;;
77248;SDS011;66280;45.124;20.718;2023-04-12T03:17:24;2.03;;;1.33;;
77248;SDS011;66280;45.124;20.718;2023-04-12T03:27:27;2.30;;;1.60;;
77248;SDS011;66280;45.124;20.718;2023-04-12T03:37:28;2.00;;;0.97;;
77248;SDS011;66280;45.124;20.718;2023-04-12T03:47:30;2.10;;;1.17;;
77248;SDS011;66280;45.124;20.718;2023-04-12T03:57:31;2.47;;;1.80;;
77248;SDS011;66280;45.124;20.718;2023-04-12T04:07:33;3.23;;;1.80;;
77248;SDS011;66280;45.124;20.718;2023-04-12T04:17:33;2.80;;;0.90;;
77248;SDS011;66280;45.124;20.718;2023-04-12T04:27:35;1.83;;;1.33;;
77248;SDS011;66280;45.124;20.718;2023-04-12T04:37:36;4.20;;;2.33;;
77248;SDS011;66280;45.124;20.718;2023-04-12T04:47:38;1.50;;;1.13;;
77248;SDS011;66280;45.124;20.718;2023-04-12T04:57:40;2.20;;;1.80;;
77248;SDS011;66280;45.124;20.718;2023-04-12T05:07:41;1.90;;;1.65;;
77248;SDS011;66280;45.124;20.718;2023-04-12T05:17:42;2.47;;;1.60;;
77248;SDS011;66280;45.124;20.718;2023-04-12T05:27:43;2.27;;;1.87;;
77248;SDS011;66280;45.124;20.718;2023-04-12T05:37:48;2.90;;;2.08;;
77248;SDS011;66280;45.124;20.718;2023-04-12T05:47:49;2.57;;;2.23;;
77248;SDS011;66280;45.124;20.718;2023-04-12T05:57:50;2.27;;;2.07;;
77248;SDS011;66280;45.124;20.718;2023-04-12T06:07:53;3.22;;;2.97;;
77248;SDS011;66280;45.124;20.718;2023-04-12T06:17:54;6.27;;;2.73;;
77248;SDS011;66280;45.124;20.718;2023-04-12T06:27:55;5.60;;;3.90;;
77248;SDS011;66280;45.124;20.718;2023-04-12T06:37:58;5.80;;;3.43;;
77248;SDS011;66280;45.124;20.718;2023-04-12T06:47:59;7.37;;;3.67;;
77248;SDS011;66280;45.124;20.718;2023-04-12T06:58:00;9.93;;;2.90;;
77248;SDS011;66280;45.124;20.718;2023-04-12T07:08:00;5.23;;;4.47;;
77248;SDS011;66280;45.124;20.718;2023-04-12T07:18:01;4.60;;;3.63;;
77248;SDS011;66280;45.124;20.718;2023-04-12T07:28:01;4.90;;;3.93;;
77248;SDS011;66280;45.124;20.718;2023-04-12T07:38:02;5.40;;;3.57;;
77248;SDS011;66280;45.124;20.718;2023-04-12T07:48:03;4.70;;;4.18;;
77248;SDS011;66280;45.124;20.718;2023-04-12T07:58:03;6.77;;;5.67;;
77248;SDS011;66280;45.124;20.718;2023-04-12T08:08:04;4.63;;;4.20;;
77248;SDS011;66280;45.124;20.718;2023-04-12T08:18:05;5.47;;;4.97;;
77248;SDS011;66280;45.124;20.718;2023-04-12T08:28:06;6.10;;;5.47;;
77248;SDS011;66280;45.124;20.718;2023-04-12T08:38:07;4.70;;;4.10;;
77248;SDS011;66280;45.124;20.718;2023-04-12T08:48:07;4.83;;;4.40;;
77248;SDS011;66280;45.124;20.718;2023-04-12T08:58:08;7.20;;;4.30;;
77248;SDS011;66280;45.124;20.718;2023-04-12T09:08:09;6.40;;;4.60;;
77248;SDS011;66280;45.124;20.718;2023-04-12T09:18:10;4.27;;;3.97;;
77248;SDS011;66280;45.124;20.718;2023-04-12T09:28:23;5.23;;;4.83;;
77248;SDS011;66280;45.124;20.718;2023-04-12T09:38:25;5.47;;;4.80;;
77248;SDS011;66280;45.124;20.718;2023-04-12T09:48:26;8.90;;;5.03;;
77248;SDS011;66280;45.124;20.718;2023-04-12T09:58:26;37.00;;;7.87;;
77248;SDS011;66280;45.124;20.718;2023-04-12T10:08:28;4.15;;;3.95;;
77248;SDS011;66280;45.124;20.718;2023-04-12T10:18:30;11.90;;;6.93;;
77248;SDS011;66280;45.124;20.718;2023-04-12T10:28:30;4.57;;;4.17;;
77248;SDS011;66280;45.124;20.718;2023-04-12T10:38:43;14.50;;;4.93;;
77248;SDS011;66280;45.124;20.718;2023-04-12T10:48:52;7.05;;;3.78;;
77248;SDS011;66280;45.124;20.718;2023-04-12T10:58:53;3.60;;;3.20;;
77248;SDS011;66280;45.124;20.718;2023-04-12T11:08:56;3.20;;;2.90;;
77248;SDS011;66280;45.124;20.718;2023-04-12T11:18:58;8.70;;;5.05;;
77248;SDS011;66280;45.124;20.718;2023-04-12T11:29:05;9.60;;;7.00;;
77248;SDS011;66280;45.124;20.718;2023-04-12T11:39:07;5.70;;;4.70;;
77248;SDS011;66280;45.124;20.718;2023-04-12T11:49:07;3.60;;;3.30;;
77248;SDS011;66280;45.124;20.718;2023-04-12T11:59:08;3.57;;;2.83;;
77248;SDS011;66280;45.124;20.718;2023-04-12T12:09:09;11.20;;;4.07;;
77248;SDS011;66280;45.124;20.718;2023-04-12T12:19:12;6.03;;;3.90;;
77248;SDS011;66280;45.124;20.718;2023-04-12T12:29:16;3.67;;;3.37;;
77248;SDS011;66280;45.124;20.718;2023-04-12T12:39:17;15.67;;;8.90;;
77248;SDS011;66280;45.124;20.718;2023-04-12T12:49:18;4.20;;;3.10;;
77248;SDS011;66280;45.124;20.718;2023-04-12T12:59:18;2.97;;;2.73;;
77248;SDS011;66280;45.124;20.718;2023-04-12T13:09:19;8.30;;;6.03;;
77248;SDS011;66280;45.124;20.718;2023-04-12T13:19:20;3.73;;;3.30;;
77248;SDS011;66280;45.124;20.718;2023-04-12T13:29:20;6.53;;;4.73;;
77248;SDS011;66280;45.124;20.718;2023-04-12T13:39:21;3.50;;;3.20;;
77248;SDS011;66280;45.124;20.718;2023-04-12T13:49:22;6.13;;;3.63;;
77248;SDS011;66280;45.124;20.718;2023-04-12T13:59:23;4.63;;;3.23;;
77248;SDS011;66280;45.124;20.718;2023-04-12T14:09:30;3.53;;;3.23;;
77248;SDS011;66280;45.124;20.718;2023-04-12T14:19:31;8.38;;;2.00;;
77248;SDS011;66280;45.124;20.718;2023-04-12T14:29:32;5.73;;;1.97;;
77248;SDS011;66280;45.124;20.718;2023-04-12T14:39:33;2.67;;;2.07;;
77248;SDS011;66280;45.124;20.718;2023-04-12T14:49:33;4.83;;;2.93;;
77248;SDS011;66280;45.124;20.718;2023-04-12T14:59:34;9.85;;;6.30;;
77248;SDS011;66280;45.124;20.718;2023-04-12T15:09:35;11.40;;;7.67;;
77248;SDS011;66280;45.124;20.718;2023-04-12T15:19:35;9.63;;;6.43;;
77248;SDS011;66280;45.124;20.718;2023-04-12T15:29:36;6.63;;;3.53;;
77248;SDS011;66280;45.124;20.718;2023-04-12T15:39:37;14.30;;;7.97;;
77248;SDS011;66280;45.124;20.718;2023-04-12T15:49:38;10.57;;;3.50;;
77248;SDS011;66280;45.124;20.718;2023-04-12T15:59:39;5.70;;;2.80;;
77248;SDS011;66280;45.124;20.718;2023-04-12T16:09:39;17.70;;;5.75;;
77248;SDS011;66280;45.124;20.718;2023-04-12T16:19:40;17.73;;;10.07;;
77248;SDS011;66280;45.124;20.718;2023-04-12T16:29:40;22.40;;;10.15;;
77248;SDS011;66280;45.124;20.718;2023-04-12T16:39:41;17.05;;;9.90;;
77248;SDS011;66280;45.124;20.718;2023-04-12T16:49:43;38.57;;;19.50;;
77248;SDS011;66280;45.124;20.718;2023-04-12T16:59:44;46.17;;;22.80;;
77248;SDS011;66280;45.124;20.718;2023-04-12T17:09:45;38.60;;;19.57;;
77248;SDS011;66280;45.124;20.718;2023-04-12T17:19:45;41.92;;;24.98;;
77248;SDS011;66280;45.124;20.718;2023-04-12T17:29:46;47.30;;;24.15;;
77248;SDS011;66280;45.124;20.718;2023-04-12T17:39:47;70.83;;;34.97;;
77248;SDS011;66280;45.124;20.718;2023-04-12T17:49:49;57.20;;;28.20;;
77248;SDS011;66280;45.124;20.718;2023-04-12T17:59:50;43.05;;;21.20;;
77248;SDS011;66280;45.124;20.718;2023-04-12T18:09:51;69.00;;;31.50;;
77248;SDS011;66280;45.124;20.718;2023-04-12T18:19:51;90.50;;;35.03;;
77248;SDS011;66280;45.124;20.718;2023-04-12T18:29:52;76.73;;;30.00;;
77248;SDS011;66280;45.124;20.718;2023-04-12T18:39:53;45.45;;;20.95;;
77248;SDS011;66280;45.124;20.718;2023-04-12T18:49:54;92.80;;;30.57;;
77248;SDS011;66280;45.124;20.718;2023-04-12T18:59:54;90.47;;;31.40;;
77248;SDS011;66280;45.124;20.718;2023-04-12T19:09:55;59.28;;;25.30;;
77248;SDS011;66280;45.124;20.718;2023-04-12T19:19:56;42.37;;;19.10;;
77248;SDS011;66280;45.124;20.718;2023-04-12T19:29:56;30.30;;;13.73;;
77248;SDS011;66280;45.124;20.718;2023-04-12T19:39:57;24.10;;;12.73;;
77248;SDS011;66280;45.124;20.718;2023-04-12T19:49:58;17.50;;;10.37;;
77248;SDS011;66280;45.124;20.718;2023-04-12T19:59:58;20.90;;;11.43;;
77248;SDS011;66280;45.124;20.718;2023-04-12T20:09:59;22.47;;;11.17;;
77248;SDS011;66280;45.124;20.718;2023-04-12T20:20:00;22.43;;;11.23;;
77248;SDS011;66280;45.124;20.718;2023-04-12T20:30:02;24.47;;;13.07;;
77248;SDS011;66280;45.124;20.718;2023-04-12T20:40:03;24.07;;;12.43;;
77248;SDS011;66280;45.124;20.718;2023-04-12T20:50:04;26.57;;;11.60;;
77248;SDS011;66280;45.124;20.718;2023-04-12T21:00:08;24.30;;;13.67;;
77248;SDS011;66280;45.124;20.718;2023-04-12T21:10:10;24.75;;;12.38;;
77248;SDS011;66280;45.124;20.718;2023-04-12T21:20:10;20.87;;;11.60;;
77248;SDS011;66280;45.124;20.718;2023-04-12T21:30:11;17.37;;;8.63;;
77248;SDS011;66280;45.124;20.718;2023-04-12T21:40:12;13.57;;;7.40;;
77248;SDS011;66280;45.124;20.718;2023-04-12T21:50:13;20.27;;;6.60;;
77248;SDS011;66280;45.124;20.718;2023-04-12T22:00:13;12.90;;;7.30;;
77248;SDS011;66280;45.124;20.718;2023-04-12T22:10:14;15.03;;;8.33;;
77248;SDS011;66280;45.124;20.718;2023-04-12T22:20:15;21.95;;;11.80;;
77248;SDS011;66280;45.124;20.718;2023-04-12T22:30:16;13.37;;;8.00;;
77248;SDS011;66280;45.124;20.718;2023-04-12T22:40:16;18.65;;;9.25;;
77248;SDS011;66280;45.124;20.718;2023-04-12T22:50:17;6.77;;;4.07;;
77248;SDS011;66280;45.124;20.718;2023-04-12T23:00:18;6.20;;;3.95;;
77248;SDS011;66280;45.124;20.718;2023-04-12T23:10:18;15.53;;;6.83;;
77248;SDS011;66280;45.124;20.718;2023-04-12T23:20:19;12.20;;;5.87;;
77248;SDS011;66280;45.124;20.718;2023-04-12T23:30:19;10.90;;;5.83;;
77248;SDS011;66280;45.124;20.718;2023-04-12T23:40:20;12.32;;;5.40;;
77248;SDS011;66280;45.124;20.718;2023-04-12T23:50:21;12.03;;;6.03;;
